^^
Station Historical Data
 
Daily Summary for June 21, 2018 Units:  Metric    English   Both
« Previous Day
Next Day »
Daily Weekly Monthly Yearly Custom
  Current: High: Low: Average:
Temperature: -7.8 °C -17.8 °C -13.2 °C -11.5 °C
Dew Point: -18.2 °C -17.8 °C -18.2 °C -13.8 °C
Humidity: 28% Humidity% 28% 80%
Wind Speed: 26.9km/h 0km/h 0km/h 3.7km/h
Wind Gust: 18.3km/h 0km/h - -
WindNE - - ESE
Pressure: 34388.2 hPa 0 hPa 34388.2 hPa -
Precipitation: 0 mm      
Historical Graphs
 
 
Tabular Data for June 21, 2018
Time Temperature Dew Point Pressure Wind Wind Speed Wind Gust Humidity Rainfall Rate (Hourly) solar Conditions
-17.8 °C -17.8 °C 0 hPa Calm     Humidity% 0 mm SolarRadiationWatts/m^2 W/m2 Conditions
00:00 -12.4 °C -13.3 °C 34455.9 hPa Calm     90% 0 mm 0.00 W/m2 CLR
00:05 -12.4 °C -13.3 °C 34455.9 hPa Calm     90% 0 mm 0.00 W/m2 CLR
00:10 -12.3 °C -13.1 °C 34455.9 hPa Calm     91% 0 mm 0.00 W/m2 CLR
00:15 -12.3 °C -13.1 °C 34455.9 hPa Calm     91% 0 mm 0.00 W/m2 CLR
00:20 -12.3 °C -13.1 °C 34455.9 hPa Calm     91% 0 mm 0.00 W/m2 CLR
00:25 -12.4 °C -13.2 °C 34455.9 hPa Calm     91% 0 mm 0.00 W/m2 CLR
00:30 -12.4 °C -13.2 °C 34489.8 hPa Calm     91% 0 mm 0.00 W/m2 CLR
00:35 -12.4 °C -13.2 °C 34489.8 hPa Calm     91% 0 mm 0.00 W/m2 CLR
00:40 -12.5 °C -13.3 °C 34489.8 hPa Calm     91% 0 mm 0.00 W/m2 CLR
00:45 -12.4 °C -13.2 °C 34489.8 hPa WNW 6 km/h   91% 0 mm 0.00 W/m2 CLR
00:50 -12.4 °C -13.1 °C 34489.8 hPa Calm     92% 0 mm 0.00 W/m2 CLR
00:55 -12.5 °C -13.3 °C 34489.8 hPa Calm     91% 0 mm 0.00 W/m2 CLR
01:00 -12.4 °C -13.2 °C 34489.8 hPa Calm     91% 0 mm 0.00 W/m2 CLR
01:05 -12.4 °C -13.1 °C 34489.8 hPa Calm     92% 0 mm 0.00 W/m2 CLR
01:10 -12.4 °C -13.1 °C 34489.8 hPa WNW 6 km/h   92% 0 mm 0.00 W/m2 CLR
01:15 -12.5 °C -13.2 °C 34489.8 hPa Calm     92% 0 mm 0.00 W/m2 CLR
01:20 -12.6 °C -13.2 °C 34489.8 hPa Calm     92% 0 mm 0.00 W/m2 CLR
01:25 -12.6 °C -13.2 °C 34489.8 hPa Calm     92% 0 mm 0.00 W/m2 CLR
01:30 -12.6 °C -13.3 °C 34489.8 hPa Calm     92% 0 mm 0.00 W/m2 CLR
01:35 -12.7 °C -13.4 °C 34489.8 hPa Calm     92% 0 mm 0.00 W/m2 CLR
01:40 -12.7 °C -13.4 °C 34489.8 hPa Calm     92% 0 mm 0.00 W/m2 CLR
01:45 -12.8 °C -13.4 °C 34489.8 hPa Calm     92% 0 mm 0.00 W/m2 CLR
01:50 -12.7 °C -13.4 °C 34489.8 hPa Calm     92% 0 mm 0.00 W/m2 CLR
01:55 -12.8 °C -13.4 °C 34489.8 hPa Calm     92% 0 mm 0.00 W/m2 CLR
02:00 -12.8 °C -13.4 °C 34455.9 hPa Calm     92% 0 mm 0.00 W/m2 CLR
02:05 -12.8 °C -13.4 °C 34455.9 hPa Calm     93% 0 mm 0.00 W/m2 CLR
02:10 -12.8 °C -13.4 °C 34455.9 hPa Calm     93% 0 mm 0.00 W/m2 CLR
02:15 -12.7 °C -13.3 °C 34455.9 hPa Calm     93% 0 mm 0.00 W/m2 CLR
02:20 -12.7 °C -13.3 °C 34455.9 hPa Calm     93% 0 mm 0.00 W/m2 CLR
02:25 -12.7 °C -13.3 °C 34455.9 hPa Calm     93% 0 mm 0.00 W/m2 CLR
02:30 -12.8 °C -13.4 °C 34489.8 hPa Calm     93% 0 mm 0.00 W/m2 CLR
02:35 -12.7 °C -13.3 °C 34489.8 hPa Calm     93% 0 mm 0.00 W/m2 CLR
02:40 -12.7 °C -13.3 °C 34489.8 hPa Calm     93% 0 mm 0.00 W/m2 CLR
02:45 -12.8 °C -13.4 °C 34489.8 hPa Calm     93% 0 mm 0.00 W/m2 CLR
02:50 -12.8 °C -13.4 °C 34489.8 hPa Calm     93% 0 mm 0.00 W/m2 CLR
02:55 -12.7 °C -13.3 °C 34489.8 hPa Calm     93% 0 mm 0.00 W/m2 CLR
03:00 -12.7 °C -13.3 °C 34489.8 hPa Calm     93% 0 mm 0.00 W/m2 CLR
03:05 -12.7 °C -13.3 °C 34489.8 hPa Calm     93% 0 mm 0.00 W/m2 CLR
03:10 -12.7 °C -13.3 °C 34489.8 hPa Calm     93% 0 mm 0.00 W/m2 CLR
03:15 -12.7 °C -13.3 °C 34489.8 hPa Calm     93% 0 mm 0.00 W/m2 CLR
03:20 -12.7 °C -13.3 °C 34489.8 hPa Calm     93% 0 mm 0.00 W/m2 CLR
03:25 -12.7 °C -13.2 °C 34489.8 hPa Calm     94% 0 mm 0.00 W/m2 CLR
03:30 -12.6 °C -13.1 °C 34489.8 hPa Calm     94% 0 mm 0.00 W/m2 CLR
03:35 -12.7 °C -13.2 °C 34489.8 hPa Calm     94% 0 mm 0.00 W/m2 CLR
03:40 -12.7 °C -13.2 °C 34489.8 hPa Calm     94% 0 mm 0.00 W/m2 CLR
03:45 -12.7 °C -13.3 °C 34489.8 hPa Calm     93% 0 mm 0.00 W/m2 CLR
03:50 -12.8 °C -13.3 °C 34489.8 hPa Calm     94% 0 mm 0.00 W/m2 CLR
03:55 -12.8 °C -13.4 °C 34489.8 hPa Calm     93% 0 mm 0.00 W/m2 CLR
04:00 -12.8 °C -13.4 °C 34489.8 hPa Calm     93% 0 mm 0.00 W/m2 CLR
04:05 -12.8 °C -13.3 °C 34489.8 hPa Calm     94% 0 mm 0.00 W/m2 CLR
04:10 -12.8 °C -13.3 °C 34489.8 hPa Calm     94% 0 mm 0.00 W/m2 CLR
04:15 -12.9 °C -13.4 °C 34455.9 hPa Calm     94% 0 mm 0.00 W/m2 CLR
04:20 -13 °C -13.6 °C 34455.9 hPa Calm     93% 0 mm 0.00 W/m2 CLR
04:25 -13 °C -13.6 °C 34455.9 hPa Calm     93% 0 mm 0.00 W/m2 CLR
04:30 -13.1 °C -13.7 °C 34489.8 hPa Calm     93% 0 mm 0.00 W/m2 CLR
04:35 -13.1 °C -13.7 °C 34489.8 hPa Calm     93% 0 mm 0.00 W/m2 CLR
04:40 -13.2 °C -13.8 °C 34489.8 hPa Calm     93% 0 mm 0.00 W/m2 CLR
04:45 -13.2 °C -13.8 °C 34455.9 hPa Calm     93% 0 mm 0.00 W/m2 CLR
04:50 -13.2 °C -13.8 °C 34455.9 hPa Calm     93% 0 mm 0.00 W/m2 CLR
04:55 -13.2 °C -13.8 °C 34455.9 hPa Calm     93% 0 mm 0.00 W/m2 CLR
05:00 -13.2 °C -13.8 °C 34489.8 hPa Calm     93% 0 mm 0.00 W/m2 CLR
05:05 -13.2 °C -13.8 °C 34489.8 hPa Calm     93% 0 mm 0.00 W/m2 CLR
05:10 -13.2 °C -13.7 °C 34489.8 hPa Calm     94% 0 mm 0.00 W/m2 CLR
05:15 -13.1 °C -13.6 °C 34455.9 hPa Calm     94% 0 mm 0.00 W/m2 CLR
05:20 -13.1 °C -13.6 °C 34455.9 hPa Calm     94% 0 mm 0.00 W/m2 CLR
05:25 -12.9 °C -13.4 °C 34455.9 hPa Calm     95% 0 mm 0.00 W/m2 CLR
05:30 -12.8 °C -13.2 °C 34455.9 hPa Calm     95% 0 mm 0.00 W/m2 CLR
05:35 -12.8 °C -13.2 °C 34455.9 hPa Calm     95% 0 mm 0.00 W/m2 CLR
05:40 -12.7 °C -13.1 °C 34455.9 hPa Calm     95% 0 mm 0.00 W/m2 CLR
05:45 -12.6 °C -13 °C 34455.9 hPa Calm     95% 0 mm 0.00 W/m2 CLR
05:50 -12.6 °C -12.9 °C 34455.9 hPa Calm     95% 0 mm 0.00 W/m2 CLR
05:55 -12.5 °C -12.9 °C 34455.9 hPa Calm     95% 0 mm 0.00 W/m2 CLR
06:00 -12.4 °C -12.7 °C 34455.9 hPa Calm     96% 0 mm 0.00 W/m2 CLR
06:05 -12.2 °C -12.6 °C 34455.9 hPa Calm     96% 0 mm 0.00 W/m2 CLR
06:10 -11.9 °C -12.3 °C 34455.9 hPa Calm     96% 0 mm 0.00 W/m2 CLR
06:15 -11.7 °C -11.9 °C 34455.9 hPa Calm     97% 0 mm 0.00 W/m2 CLR
06:20 -11.6 °C -11.9 °C 34455.9 hPa Calm     96% 0 mm 0.00 W/m2 CLR
06:25 -11.7 °C -12 °C 34455.9 hPa Calm     96% 0 mm 0.00 W/m2 CLR
06:30 -11.6 °C -12.1 °C 34455.9 hPa Calm     95% 0 mm 0.00 W/m2 CLR
06:35 -11.6 °C -12 °C 34455.9 hPa Calm     95% 0 mm 0.00 W/m2 CLR
06:40 -11.6 °C -12 °C 34455.9 hPa Calm     95% 0 mm 0.00 W/m2 CLR
06:45 -11.6 °C -12 °C 34455.9 hPa Calm     95% 0 mm 0.00 W/m2 CLR
06:50 -11.7 °C -12.1 °C 34455.9 hPa Calm     95% 0 mm 0.00 W/m2 CLR
06:55 -11.7 °C -12.3 °C 34455.9 hPa Calm     94% 0 mm 0.00 W/m2 CLR
07:00 -11.8 °C -12.3 °C 34455.9 hPa North 3.1 km/h   94% 0 mm 0.00 W/m2 CLR
07:05 -11.8 °C -12.3 °C 34455.9 hPa Calm     94% 0 mm 0.00 W/m2 CLR
07:10 -11.8 °C -12.3 °C 34455.9 hPa Calm     94% 0 mm 0.00 W/m2 CLR
07:15 -11.7 °C -12.2 °C 34455.9 hPa Calm     94% 0 mm 0.00 W/m2 CLR
07:20 -11.6 °C -12.1 °C 34455.9 hPa Calm     94% 0 mm 0.00 W/m2 CLR
07:25 -11.3 °C -11.8 °C 34455.9 hPa Calm     94% 0 mm 0.00 W/m2 CLR
07:30 -10.8 °C -11.3 °C 34455.9 hPa NW 11.9 km/h 6 km/h 95% 0 mm 0.00 W/m2 CLR
07:35 -10.4 °C -10.9 °C 34455.9 hPa Calm     94% 0 mm 0.00 W/m2 CLR
07:40 -10.4 °C -10.9 °C 34455.9 hPa NE 7.6 km/h   94% 0 mm 0.00 W/m2 CLR
07:45 -10 °C -10.6 °C 34455.9 hPa Calm     93% 0 mm 0.00 W/m2 CLR
07:50 -9.9 °C -10.7 °C 34455.9 hPa South 4.3 km/h   92% 0 mm 0.00 W/m2 CLR
07:55 -9.8 °C -10.9 °C 34455.9 hPa Calm     88% 0 mm 0.00 W/m2 CLR
08:00 -10.2 °C -12.9 °C 34422.1 hPa Calm     72% 0 mm 0.00 W/m2 RA
08:05 -10.2 °C -14.1 °C 34422.1 hPa ENE 15 km/h 6 km/h 62% 0 mm 0.00 W/m2 RA
08:10 -9.9 °C -14.2 °C 34422.1 hPa ENE 6 km/h   60% 0 mm 0.00 W/m2 CLR
08:15 -9.5 °C -14.1 °C 34455.9 hPa NW 6 km/h   58% 0 mm 0.00 W/m2 CLR
08:20 -8.9 °C -13.9 °C 34455.9 hPa NE 15.6 km/h   55% 0 mm 0.00 W/m2 CLR
08:25 -9.2 °C -15.5 °C 34455.9 hPa ENE 11.1 km/h   47% 0 mm 0.00 W/m2 CLR
08:30 -9.2 °C -15.6 °C 34455.9 hPa NNE 11.9 km/h 6 km/h 46% 0 mm 0.00 W/m2 CLR
08:35 -9.3 °C -16.1 °C 34455.9 hPa Calm     44% 0 mm 0.00 W/m2 CLR
08:40 -9.3 °C -16.1 °C 34455.9 hPa NE 17.9 km/h 13.7 km/h 44% 0 mm 0.00 W/m2 CLR
08:45 -9.9 °C -17.2 °C 34422.1 hPa ESE 15 km/h 8.2 km/h 41% 0 mm 0.00 W/m2 CLR
08:50 -9.1 °C -15.9 °C 34422.1 hPa ENE 11.1 km/h   44% 0 mm 0.00 W/m2 CLR
08:55 -8.8 °C -16.2 °C 34422.1 hPa North 14.5 km/h 7.2 km/h 41% 0 mm 0.00 W/m2 CLR
09:00 -9.1 °C -16.8 °C 34455.9 hPa NNW 26.9 km/h 10.1 km/h 39% 0 mm 0.00 W/m2 CLR
09:05 -9.3 °C -17.4 °C 34455.9 hPa ENE 15 km/h 4.7 km/h 37% 0 mm 0.00 W/m2 CLR
09:10 -9.4 °C -17.1 °C 34455.9 hPa East 15 km/h   39% 0 mm 0.00 W/m2 CLR
09:15 -9 °C -16.9 °C 34422.1 hPa SE 18.7 km/h 8.2 km/h 38% 0 mm 0.00 W/m2 CLR
09:20 -8.2 °C -16.4 °C 34422.1 hPa ENE 9 km/h   37% 0 mm 0.00 W/m2 CLR
09:25 -7.9 °C -16.6 °C 34422.1 hPa SSW 17.9 km/h 8.2 km/h 35% 0 mm 0.00 W/m2 CLR
09:30 -7.7 °C -16.6 °C 34422.1 hPa NE 13.5 km/h 7.2 km/h 34% 0 mm 0.00 W/m2 CLR
09:35 -8.8 °C -17.4 °C 34422.1 hPa ENE 9 km/h 8.2 km/h 35% 0 mm 0.00 W/m2 CLR
09:40 -8.7 °C -17.3 °C 34422.1 hPa NE 3.1 km/h   35% 0 mm 0.00 W/m2 CLR
09:45 -8.4 °C -17.3 °C 34422.1 hPa NE 25.1 km/h 12.4 km/h 34% 0 mm 0.00 W/m2 CLR
09:50 -8.2 °C -17.1 °C 34422.1 hPa North 11.9 km/h   34% 0 mm 0.00 W/m2 CLR
09:55 -7.7 °C -16.9 °C 34422.1 hPa NE 11.9 km/h 4.7 km/h 33% 0 mm 0.00 W/m2 CLR
10:00 -7.6 °C -17.1 °C 34422.1 hPa ENE 23.8 km/h 19.6 km/h 32% 0 mm 0.00 W/m2 CLR
10:05 -7.1 °C -16.6 °C 34422.1 hPa ENE 6 km/h   32% 0 mm 0.00 W/m2 CLR
10:10 -7.2 °C -17.2 °C 34422.1 hPa NE 17.9 km/h 13.7 km/h 30% 0 mm 0.00 W/m2 CLR
10:15 -7.9 °C -17.8 °C 34422.1 hPa East 16.6 km/h   30% 0 mm 0.00 W/m2 CLR
10:20 -7.7 °C -17.4 °C 34422.1 hPa NNW 11.9 km/h 8.2 km/h 31% 0 mm 0.00 W/m2 CLR
10:25 -7.7 °C -18.2 °C 34422.1 hPa SE 26.9 km/h 16.1 km/h 28% 0 mm 0.00 W/m2 CLR
10:30 -7.8 °C -18.2 °C 34388.2 hPa NE 26.9 km/h 18.3 km/h 28% 0 mm 0.00 W/m2 CLR
Bakkaano Camping, Sokndal
Compliments of Weather Underground - 2 mb